Time;durP1;ratioP1;P1;durP2;ratioP2;P2;SDS_P1;SDS_P2;PMS_P1;PMS_P2;Temp;Humidity;BMP_temperature;BMP_pressure;BME280_temperature;BME280_humidity;BME280_pressure;Samples;Min_cycle;Max_cycle;Signal;HPM_P1;HPM_P2
2020/12/30 00:00:32;;;;;;;11.20;10.30;;;2.60;99.90;;;;;;6127754;23;20398;-77
2020/12/30 00:02:59;;;;;;;10.90;10.20;;;2.60;99.90;;;;;;6127472;23;20865;-77
2020/12/30 00:05:25;;;;;;;10.60;9.90;;;2.60;99.90;;;;;;6127828;23;20400;-77
2020/12/30 00:07:52;;;;;;;11.30;10.30;;;2.60;99.90;;;;;;6127414;23;20416;-77
2020/12/30 00:10:20;;;;;;;10.40;9.80;;;2.50;99.90;;;;;;6127166;23;20480;-77
2020/12/30 00:12:48;;;;;;;10.80;10.10;;;2.50;99.90;;;;;;6126141;23;20441;-77
2020/12/30 00:15:15;;;;;;;11.20;10.30;;;2.50;99.90;;;;;;6126943;23;20390;-77
2020/12/30 00:17:42;;;;;;;10.93;10.23;;;2.50;99.90;;;;;;6127556;23;20416;-79
2020/12/30 00:20:10;;;;;;;10.73;10.03;;;2.50;99.90;;;;;;6127186;23;20869;-78
2020/12/30 00:22:36;;;;;;;10.63;9.93;;;2.50;99.90;;;;;;6127687;23;20769;-78
2020/12/30 00:25:03;;;;;;;10.83;10.13;;;2.50;99.90;;;;;;6125612;23;20893;-78
2020/12/30 00:27:30;;;;;;;10.63;9.93;;;2.50;99.90;;;;;;6126230;23;20444;-77
2020/12/30 00:29:56;;;;;;;10.60;9.90;;;2.50;99.90;;;;;;6127359;23;21086;-78
2020/12/30 00:32:22;;;;;;;10.80;10.10;;;2.60;99.90;;;;;;6127594;23;20451;-77
2020/12/30 00:34:49;;;;;;;10.53;9.83;;;2.60;99.90;;;;;;6128088;23;20459;-78
2020/12/30 00:37:15;;;;;;;11.00;10.20;;;2.60;99.90;;;;;;6128227;23;20444;-79
2020/12/30 00:39:42;;;;;;;10.80;10.10;;;2.50;99.90;;;;;;6127216;23;20421;-78
2020/12/30 00:42:09;;;;;;;10.60;9.90;;;2.40;99.90;;;;;;6129102;23;20389;-76
2020/12/30 00:44:35;;;;;;;10.53;9.90;;;2.40;99.90;;;;;;6127940;23;20463;-78
2020/12/30 00:47:01;;;;;;;11.10;10.40;;;2.30;99.90;;;;;;6129401;23;20414;-77
2020/12/30 00:49:28;;;;;;;12.00;11.20;;;2.30;99.90;;;;;;6127984;23;20413;-77
2020/12/30 00:51:57;;;;;;;11.97;11.17;;;2.30;99.90;;;;;;6127320;23;20450;-77
2020/12/30 00:54:29;;;;;;;12.10;11.20;;;2.40;99.90;;;;;;6127608;23;20409;-77
2020/12/30 00:56:55;;;;;;;12.60;11.70;;;2.40;99.90;;;;;;6127802;23;20438;-78
2020/12/30 00:59:27;;;;;;;12.90;11.83;;;2.40;99.90;;;;;;6127922;23;20813;-77
2020/12/30 01:01:55;;;;;;;13.20;12.10;;;2.30;99.90;;;;;;6127792;23;20427;-77
2020/12/30 01:04:27;;;;;;;14.30;13.00;;;2.40;99.90;;;;;;6127653;23;20432;-76
2020/12/30 01:06:55;;;;;;;15.13;13.63;;;2.30;99.90;;;;;;6127788;23;20413;-78
2020/12/30 01:09:22;;;;;;;15.73;14.33;;;2.30;99.90;;;;;;6127126;23;20482;-77
2020/12/30 01:11:48;;;;;;;15.70;14.33;;;2.10;99.90;;;;;;6129126;23;20431;-77
2020/12/30 01:14:15;;;;;;;15.17;13.80;;;2.10;99.90;;;;;;6127108;23;20420;-77
2020/12/30 01:16:48;;;;;;;15.87;14.23;;;2.10;99.90;;;;;;6127136;23;20428;-77
2020/12/30 01:19:14;;;;;;;14.70;13.53;;;2.10;99.90;;;;;;6128582;23;20378;-78
2020/12/30 01:21:42;;;;;;;15.70;14.20;;;2.10;99.90;;;;;;6128684;23;20387;-78
2020/12/30 01:24:08;;;;;;;13.83;12.63;;;2.10;99.90;;;;;;6127854;23;20409;-77
2020/12/30 01:26:35;;;;;;;14.73;13.43;;;2.20;99.90;;;;;;6128401;23;20448;-78
2020/12/30 01:29:01;;;;;;;14.50;13.30;;;2.20;99.90;;;;;;6127118;23;20771;-78
2020/12/30 01:31:28;;;;;;;13.90;12.80;;;2.30;99.90;;;;;;6127312;23;20467;-78
2020/12/30 01:33:55;;;;;;;14.57;13.47;;;2.30;99.90;;;;;;6127083;23;20880;-77
2020/12/30 01:36:22;;;;;;;14.43;13.13;;;2.30;99.90;;;;;;6128775;23;20902;-77
2020/12/30 01:38:49;;;;;;;14.10;13.00;;;2.40;99.90;;;;;;6128297;23;20410;-78
2020/12/30 01:41:15;;;;;;;13.33;12.30;;;2.40;99.90;;;;;;6127045;23;20425;-77
2020/12/30 01:43:41;;;;;;;13.17;12.27;;;2.40;99.90;;;;;;6128799;23;20388;-77
2020/12/30 01:46:08;;;;;;;12.90;11.90;;;2.40;99.90;;;;;;6128908;23;20396;-77
2020/12/30 01:48:35;;;;;;;13.57;12.57;;;2.40;99.90;;;;;;6127002;23;20425;-78
2020/12/30 01:51:03;;;;;;;13.80;12.70;;;2.40;99.90;;;;;;6128501;23;20464;-78
2020/12/30 01:53:29;;;;;;;12.60;11.80;;;2.40;99.90;;;;;;6128838;23;20389;-77
2020/12/30 01:55:56;;;;;;;14.57;13.47;;;2.40;99.90;;;;;;6126896;23;21042;-78
2020/12/30 01:58:22;;;;;;;13.70;12.70;;;2.40;99.90;;;;;;6128596;23;20417;-77
2020/12/30 02:00:53;;;;;;;13.80;12.70;;;2.40;99.90;;;;;;6128731;23;20424;-78
2020/12/30 02:03:20;;;;;;;13.67;12.57;;;2.40;99.90;;;;;;6128529;23;20433;-77
2020/12/30 02:05:46;;;;;;;13.43;12.33;;;2.40;99.90;;;;;;6127309;23;20814;-76
2020/12/30 02:08:14;;;;;;;13.43;12.40;;;2.50;99.90;;;;;;6127963;23;20770;-77
2020/12/30 02:10:41;;;;;;;13.10;12.00;;;2.50;99.90;;;;;;6128463;23;20896;-78
2020/12/30 02:13:07;;;;;;;12.90;12.00;;;2.60;99.90;;;;;;6126851;23;20823;-78
2020/12/30 02:15:34;;;;;;;13.10;12.10;;;2.60;99.90;;;;;;6128565;23;20393;-77
2020/12/30 02:18:01;;;;;;;14.07;12.97;;;2.50;99.90;;;;;;6128327;23;20421;-78
2020/12/30 02:20:30;;;;;;;13.30;12.20;;;2.50;99.90;;;;;;6127834;23;20906;-78
2020/12/30 02:23:02;;;;;;;13.33;12.30;;;2.40;99.90;;;;;;6126948;23;20409;-77
2020/12/30 02:25:29;;;;;;;13.83;12.63;;;2.40;99.90;;;;;;6126793;23;20409;-78
2020/12/30 02:27:56;;;;;;;13.40;12.40;;;2.30;99.90;;;;;;6128246;23;20413;-78
2020/12/30 02:30:22;;;;;;;12.87;11.97;;;2.20;99.90;;;;;;6127976;23;20398;-78
2020/12/30 02:32:49;;;;;;;13.60;12.53;;;2.20;99.90;;;;;;6128187;23;20434;-77
2020/12/30 02:35:15;;;;;;;13.20;12.30;;;2.10;99.90;;;;;;6126791;23;21108;-77
2020/12/30 02:37:41;;;;;;;12.60;11.70;;;2.00;99.90;;;;;;6126088;23;20439;-77
2020/12/30 02:40:08;;;;;;;12.83;11.93;;;2.00;99.90;;;;;;6125940;23;20424;-77
2020/12/30 02:42:35;;;;;;;13.87;12.77;;;1.90;99.90;;;;;;6127904;23;20390;-79
2020/12/30 02:45:05;;;;;;;12.80;11.90;;;1.80;99.90;;;;;;6125890;23;20411;-77
2020/12/30 02:47:32;;;;;;;13.97;12.70;;;1.80;99.90;;;;;;6126013;23;20441;-78
2020/12/30 02:49:59;;;;;;;14.23;13.13;;;1.70;99.90;;;;;;6126457;23;20908;-77
2020/12/30 02:52:26;;;;;;;13.37;12.37;;;1.70;99.90;;;;;;6126797;23;20429;-78
2020/12/30 02:54:52;;;;;;;13.70;12.70;;;1.60;99.90;;;;;;6127621;23;20392;-77
2020/12/30 02:57:19;;;;;;;13.97;12.87;;;1.60;99.90;;;;;;6126062;23;20444;-78
2020/12/30 02:59:47;;;;;;;12.90;12.00;;;1.50;99.90;;;;;;6125189;23;20426;-77
2020/12/30 03:02:13;;;;;;;13.00;12.10;;;1.30;99.90;;;;;;6125497;23;20413;-77
2020/12/30 03:04:39;;;;;;;13.53;12.53;;;1.30;99.90;;;;;;6125602;23;20417;-77
2020/12/30 03:07:06;;;;;;;13.40;12.30;;;1.20;99.90;;;;;;6125528;23;20443;-78
2020/12/30 03:09:32;;;;;;;13.67;12.63;;;1.20;99.90;;;;;;6126247;23;20401;-77
2020/12/30 03:11:58;;;;;;;14.00;12.87;;;1.20;99.90;;;;;;6126736;23;20433;-78
2020/12/30 03:14:24;;;;;;;13.67;12.67;;;1.10;99.90;;;;;;6126779;23;20895;-77
2020/12/30 03:16:51;;;;;;;13.13;12.13;;;1.10;99.90;;;;;;6124816;23;20421;-78
2020/12/30 03:19:18;;;;;;;13.53;12.43;;;1.10;99.90;;;;;;6126063;23;20420;-77
2020/12/30 03:21:44;;;;;;;13.20;12.30;;;1.10;99.90;;;;;;6126529;23;20396;-77
2020/12/30 03:24:10;;;;;;;13.67;12.67;;;1.10;99.90;;;;;;6126581;23;20392;-78
2020/12/30 03:26:37;;;;;;;14.37;13.27;;;1.10;99.90;;;;;;6126219;23;20420;-75
2020/12/30 03:29:03;;;;;;;13.53;12.63;;;1.10;99.90;;;;;;6123277;23;20460;-76
2020/12/30 03:31:30;;;;;;;13.10;12.10;;;1.10;99.90;;;;;;6124744;23;20430;-77
2020/12/30 03:33:57;;;;;;;13.10;12.20;;;1.10;99.90;;;;;;6125649;23;20390;-76
2020/12/30 03:36:24;;;;;;;13.43;12.43;;;1.10;99.90;;;;;;6125796;23;20472;-77
2020/12/30 03:38:51;;;;;;;12.97;11.97;;;1.00;99.90;;;;;;6126338;23;20409;-77
2020/12/30 03:41:17;;;;;;;13.50;12.30;;;1.00;99.90;;;;;;6126741;23;20397;-77
2020/12/30 03:43:44;;;;;;;13.47;12.47;;;0.90;99.90;;;;;;6126627;23;20919;-78
2020/12/30 03:46:13;;;;;;;13.43;12.43;;;0.80;99.90;;;;;;6126361;23;20401;-77
2020/12/30 03:48:39;;;;;;;13.00;12.10;;;0.80;99.90;;;;;;6088453;23;20459;-80
2020/12/30 03:51:06;;;;;;;12.80;11.90;;;0.70;99.90;;;;;;6098108;23;20395;-81
2020/12/30 03:53:32;;;;;;;13.00;12.10;;;0.70;99.90;;;;;;6097442;23;20434;-78
2020/12/30 03:55:59;;;;;;;12.70;11.70;;;0.60;99.90;;;;;;6099312;23;20391;-79
2020/12/30 03:58:25;;;;;;;12.83;11.90;;;0.60;99.90;;;;;;6098530;23;20441;-79
2020/12/30 04:00:51;;;;;;;13.27;12.37;;;0.60;99.90;;;;;;6074452;23;20413;-78
2020/12/30 04:03:18;;;;;;;12.80;12.00;;;0.50;99.90;;;;;;6073419;23;20410;-78
2020/12/30 04:05:44;;;;;;;12.97;12.07;;;0.50;99.90;;;;;;6074534;23;20422;-78
2020/12/30 04:08:11;;;;;;;12.73;11.80;;;0.50;99.90;;;;;;6098393;23;20411;-77
2020/12/30 04:10:37;;;;;;;13.07;12.17;;;0.40;99.90;;;;;;6069803;23;20418;-76
2020/12/30 04:13:04;;;;;;;12.27;11.47;;;0.40;99.90;;;;;;6095317;23;20434;-76
2020/12/30 04:15:30;;;;;;;13.50;12.50;;;0.40;99.90;;;;;;6095172;23;20398;-77
2020/12/30 04:17:56;;;;;;;12.63;11.73;;;0.30;99.90;;;;;;6069549;23;20964;-78
2020/12/30 04:20:22;;;;;;;12.37;11.57;;;0.30;99.90;;;;;;6069372;23;20857;-77
2020/12/30 04:22:49;;;;;;;12.70;11.80;;;0.30;99.90;;;;;;6095203;23;20390;-76
2020/12/30 04:25:16;;;;;;;14.23;13.17;;;0.30;99.90;;;;;;6069943;23;20425;-76
2020/12/30 04:27:42;;;;;;;13.67;12.60;;;0.30;99.90;;;;;;6095360;23;20418;-76
2020/12/30 04:30:09;;;;;;;13.87;12.87;;;0.30;99.90;;;;;;6069450;23;20418;-77
2020/12/30 04:32:35;;;;;;;16.27;14.87;;;0.30;99.90;;;;;;6095219;23;20437;-77
2020/12/30 04:35:01;;;;;;;15.77;14.47;;;0.30;99.90;;;;;;6094987;23;20398;-77
2020/12/30 04:37:28;;;;;;;17.77;16.23;;;0.40;99.90;;;;;;6095030;23;20914;-76
2020/12/30 04:39:56;;;;;;;17.23;15.77;;;0.40;99.90;;;;;;6094813;23;20395;-77
2020/12/30 04:42:31;;;;;;;17.27;15.83;;;0.50;99.90;;;;;;6093369;23;20898;-77
2020/12/30 04:45:01;;;;;;;16.87;15.50;;;0.50;99.90;;;;;;6094943;23;20447;-76
2020/12/30 04:47:29;;;;;;;16.37;15.07;;;0.50;99.90;;;;;;6094637;23;20430;-76
2020/12/30 04:49:55;;;;;;;17.40;15.87;;;0.50;99.90;;;;;;6094787;23;20458;-76
2020/12/30 04:52:23;;;;;;;16.13;14.63;;;0.50;99.90;;;;;;6094843;23;20426;-77
2020/12/30 04:54:50;;;;;;;15.97;14.67;;;0.50;99.90;;;;;;6069499;23;20422;-77
2020/12/30 04:57:24;;;;;;;16.73;15.30;;;0.40;99.90;;;;;;6094901;23;20469;-77
2020/12/30 04:59:53;;;;;;;17.27;15.70;;;0.40;99.90;;;;;;6069129;23;20497;-76
2020/12/30 05:02:31;;;;;;;16.87;15.37;;;0.40;99.90;;;;;;6095437;23;20473;-77
2020/12/30 05:04:58;;;;;;;16.60;15.03;;;0.30;99.90;;;;;;6097021;23;20379;-79
2020/12/30 05:07:27;;;;;;;16.07;14.87;;;0.30;99.90;;;;;;6098184;23;20757;-79
2020/12/30 05:09:54;;;;;;;16.50;15.10;;;0.30;99.90;;;;;;6074196;23;20445;-79
2020/12/30 05:12:21;;;;;;;15.67;14.20;;;0.30;99.90;;;;;;6099651;23;20430;-79
2020/12/30 05:14:49;;;;;;;15.30;14.10;;;0.30;99.90;;;;;;6073425;23;20428;-77
2020/12/30 05:17:16;;;;;;;15.30;14.10;;;0.30;99.90;;;;;;6071275;23;20445;-77
2020/12/30 05:19:44;;;;;;;16.57;15.07;;;0.20;99.90;;;;;;6096267;23;20390;-76
2020/12/30 05:22:15;;;;;;;16.90;15.30;;;0.30;99.90;;;;;;6097532;23;20730;-78
2020/12/30 05:24:43;;;;;;;16.07;14.73;;;0.20;99.90;;;;;;6096886;23;20405;-82
2020/12/30 05:27:11;;;;;;;17.67;15.97;;;0.20;99.90;;;;;;6097200;23;20414;-80
2020/12/30 05:29:41;;;;;;;17.30;15.80;;;0.20;99.90;;;;;;6072252;23;20438;-77
2020/12/30 05:32:08;;;;;;;16.60;15.20;;;0.20;99.90;;;;;;6073834;23;20932;-78
2020/12/30 05:34:35;;;;;;;16.87;15.33;;;0.10;99.90;;;;;;6073336;23;20425;-77
2020/12/30 05:37:02;;;;;;;16.27;14.73;;;0.10;99.90;;;;;;6072933;23;20477;-80
2020/12/30 05:39:30;;;;;;;16.13;14.73;;;0.20;99.90;;;;;;6099215;23;20700;-78
2020/12/30 05:42:09;;;;;;;15.33;13.97;;;0.10;99.90;;;;;;6074426;23;20418;-79
2020/12/30 05:44:35;;;;;;;15.43;14.23;;;0.10;99.90;;;;;;6099430;23;20375;-78
2020/12/30 05:47:13;;;;;;;15.20;14.00;;;0.10;99.90;;;;;;6071218;23;20426;-77
2020/12/30 05:49:40;;;;;;;15.53;14.33;;;0.00;99.90;;;;;;6070549;23;20410;-77
2020/12/30 05:52:15;;;;;;;15.20;14.13;;;0.00;99.90;;;;;;6096423;23;20528;-77
2020/12/30 05:54:46;;;;;;;14.50;13.40;;;-0.10;99.90;;;;;;6096409;23;20517;-77
2020/12/30 05:57:19;;;;;;;14.80;13.80;;;-0.10;99.90;;;;;;6070758;23;20493;-77
2020/12/30 05:59:46;;;;;;;14.60;13.40;;;-0.10;99.90;;;;;;6095481;23;20803;-78
2020/12/30 06:02:15;;;;;;;14.43;13.23;;;-0.20;99.90;;;;;;6096309;23;20941;-77
2020/12/30 06:04:42;;;;;;;14.10;12.90;;;-0.20;99.90;;;;;;6096342;23;20583;-77
2020/12/30 06:07:13;;;;;;;14.27;13.37;;;-0.20;99.90;;;;;;6096404;23;20446;-77
2020/12/30 06:09:40;;;;;;;14.20;13.20;;;-0.30;99.90;;;;;;6096150;23;20461;-78
2020/12/30 06:12:07;;;;;;;14.17;13.07;;;-0.30;99.90;;;;;;6096025;23;20453;-78
2020/12/30 06:14:34;;;;;;;13.53;12.53;;;-0.30;99.90;;;;;;6070629;23;20421;-78
2020/12/30 06:17:02;;;;;;;13.70;12.80;;;-0.30;99.90;;;;;;6095933;23;20395;-77
2020/12/30 06:19:29;;;;;;;13.47;12.57;;;-0.30;99.90;;;;;;6096014;23;20478;-77
2020/12/30 06:21:58;;;;;;;13.40;12.50;;;-0.30;99.90;;;;;;6096215;23;20398;-77
2020/12/30 06:24:25;;;;;;;13.97;12.90;;;-0.30;99.90;;;;;;6070994;23;20460;-77
2020/12/30 06:26:51;;;;;;;13.97;12.87;;;-0.30;99.90;;;;;;6097117;23;20398;-77
2020/12/30 06:29:17;;;;;;;13.80;12.80;;;-0.30;99.90;;;;;;6071076;23;20418;-78
2020/12/30 06:31:45;;;;;;;14.33;13.30;;;-0.20;99.90;;;;;;6097334;23;20402;-78
2020/12/30 06:34:12;;;;;;;14.10;13.20;;;-0.20;99.90;;;;;;6097886;23;20386;-78
2020/12/30 06:36:40;;;;;;;15.27;14.07;;;0.00;99.90;;;;;;6072684;23;20414;-77
2020/12/30 06:39:20;;;;;;;15.37;14.17;;;0.00;99.90;;;;;;6098054;23;20479;-77
2020/12/30 06:42:00;;;;;;;14.23;13.23;;;0.00;99.90;;;;;;6097813;23;20462;-78
2020/12/30 06:44:38;;;;;;;13.10;12.10;;;0.00;99.90;;;;;;6070391;23;20436;-77
2020/12/30 06:47:05;;;;;;;14.53;13.43;;;0.10;99.90;;;;;;6070549;23;20418;-79
2020/12/30 06:49:32;;;;;;;14.20;13.17;;;0.10;99.90;;;;;;6096220;23;20375;-77
2020/12/30 06:51:59;;;;;;;14.77;13.47;;;0.20;99.90;;;;;;6096858;23;20431;-78
2020/12/30 06:54:44;;;;;;;14.77;13.60;;;0.20;99.90;;;;;;6096416;23;20399;-78
2020/12/30 06:57:37;;;;;;;14.60;13.27;;;0.20;99.90;;;;;;6095920;23;20425;-77
2020/12/30 07:00:35;;;;;;;14.53;13.40;;;0.20;99.90;;;;;;6095535;23;20434;-78
2020/12/30 07:03:16;;;;;;;14.47;13.37;;;0.30;99.90;;;;;;6070346;23;20478;-78
2020/12/30 07:05:43;;;;;;;14.27;13.20;;;0.30;99.90;;;;;;6095870;23;20383;-78
2020/12/30 07:08:11;;;;;;;13.63;12.63;;;0.30;99.90;;;;;;6070345;23;20438;-78
2020/12/30 07:10:42;;;;;;;13.87;12.97;;;0.30;99.90;;;;;;6070369;23;20417;-77
2020/12/30 07:13:08;;;;;;;14.10;12.90;;;0.30;99.90;;;;;;6070696;23;20445;-77
2020/12/30 07:15:35;;;;;;;13.70;12.70;;;0.40;99.90;;;;;;6070239;23;20522;-77
2020/12/30 07:18:04;;;;;;;13.70;12.80;;;0.50;99.90;;;;;;6069915;23;20466;-77
2020/12/30 07:20:40;;;;;;;13.00;12.20;;;0.50;99.90;;;;;;6095370;23;20390;-77
2020/12/30 07:23:10;;;;;;;12.67;11.87;;;0.50;99.90;;;;;;6095647;23;20470;-78
2020/12/30 07:25:37;;;;;;;14.10;12.87;;;0.60;99.90;;;;;;6096044;23;20406;-78
2020/12/30 07:28:04;;;;;;;13.37;12.47;;;0.60;99.90;;;;;;6070867;23;20524;-78
2020/12/30 07:30:32;;;;;;;13.67;12.63;;;0.60;99.90;;;;;;6097139;23;20773;-81
2020/12/30 07:33:00;;;;;;;13.13;12.33;;;0.60;99.90;;;;;;6097548;23;20434;-77
2020/12/30 07:35:26;;;;;;;13.80;12.90;;;0.70;99.90;;;;;;6098036;23;20390;-78
2020/12/30 07:37:53;;;;;;;13.63;12.83;;;0.80;99.90;;;;;;6097029;23;20446;-77
2020/12/30 07:40:20;;;;;;;13.27;12.37;;;0.80;99.90;;;;;;6097312;23;20398;-78
2020/12/30 07:42:56;;;;;;;13.60;12.63;;;0.90;99.90;;;;;;6071959;23;20430;-78
2020/12/30 07:45:23;;;;;;;13.27;12.47;;;0.90;99.90;;;;;;6097417;23;20381;-78
2020/12/30 07:47:49;;;;;;;14.30;13.20;;;0.90;99.90;;;;;;6098063;23;20430;-76
2020/12/30 07:50:16;;;;;;;13.10;12.30;;;1.00;99.90;;;;;;6096147;23;20386;-78
2020/12/30 07:52:42;;;;;;;13.37;12.50;;;1.00;99.90;;;;;;6094869;23;20951;-78
2020/12/30 07:55:08;;;;;;;13.40;12.50;;;1.00;99.90;;;;;;6069415;23;20422;-77
2020/12/30 07:57:35;;;;;;;13.60;12.60;;;1.00;99.90;;;;;;6097967;23;20473;-77
2020/12/30 08:00:02;;;;;;;13.00;12.10;;;1.00;99.90;;;;;;6068353;23;20422;-78
2020/12/30 08:02:38;;;;;;;12.77;12.07;;;1.00;99.90;;;;;;6101001;23;20375;-78
2020/12/30 08:05:04;;;;;;;12.70;11.80;;;1.10;99.90;;;;;;6074795;23;20923;-77
2020/12/30 08:07:31;;;;;;;12.73;11.83;;;1.10;99.90;;;;;;6077534;23;20501;-78
2020/12/30 08:09:58;;;;;;;12.47;11.67;;;1.20;99.90;;;;;;6074152;23;20927;-77
2020/12/30 08:12:25;;;;;;;13.00;12.13;;;1.50;99.90;;;;;;6074198;23;20441;-77
2020/12/30 08:14:53;;;;;;;14.30;13.20;;;1.90;99.90;;;;;;6097966;23;20786;-77
2020/12/30 08:17:23;;;;;;;13.83;12.87;;;2.40;99.90;;;;;;6100173;23;20456;-77
2020/12/30 08:19:51;;;;;;;13.57;12.67;;;2.30;99.90;;;;;;6075696;23;20750;-77
2020/12/30 08:22:19;;;;;;;14.03;12.93;;;2.20;99.90;;;;;;6103083;23;20387;-77
2020/12/30 08:24:46;;;;;;;13.77;12.73;;;2.10;99.90;;;;;;6078213;23;20416;-76
2020/12/30 08:27:14;;;;;;;13.40;12.40;;;2.00;99.90;;;;;;6100449;23;20875;-78
2020/12/30 08:29:41;;;;;;;15.30;13.97;;;2.00;99.90;;;;;;6073440;23;20419;-77
2020/12/30 08:32:16;;;;;;;15.10;13.87;;;2.00;99.90;;;;;;6098475;23;20833;-78
2020/12/30 08:34:46;;;;;;;15.00;13.80;;;2.00;99.90;;;;;;6078040;23;20401;-79
2020/12/30 08:37:22;;;;;;;14.00;13.00;;;2.00;99.90;;;;;;6072817;23;20438;-78
2020/12/30 08:39:55;;;;;;;13.67;12.77;;;2.00;99.90;;;;;;6097668;23;20411;-78
2020/12/30 08:43:05;;;;;;;13.53;12.50;;;2.20;99.90;;;;;;6071496;23;20408;-77
2020/12/30 08:45:33;;;;;;;13.03;12.03;;;2.30;99.90;;;;;;6096338;23;20434;-78
2020/12/30 08:48:14;;;;;;;13.30;12.40;;;2.30;99.90;;;;;;6071071;23;20840;-78
2020/12/30 08:50:41;;;;;;;10.30;9.50;;;2.40;99.90;;;;;;6097581;23;20413;-77
2020/12/30 08:53:07;;;;;;;10.63;9.80;;;2.40;99.90;;;;;;6073186;23;20480;-77
2020/12/30 08:55:34;;;;;;;10.10;9.37;;;2.50;99.90;;;;;;6073060;23;20477;-77
2020/12/30 08:58:00;;;;;;;10.87;9.97;;;2.50;99.90;;;;;;6097272;23;20425;-77
2020/12/30 09:00:33;;;;;;;10.40;9.60;;;2.60;99.90;;;;;;6097017;23;20820;-78
2020/12/30 09:03:11;;;;;;;9.70;9.00;;;2.70;99.90;;;;;;6073085;23;20753;-78
2020/12/30 09:05:38;;;;;;;9.73;9.13;;;2.90;99.90;;;;;;6099666;23;20906;-81
2020/12/30 09:08:11;;;;;;;10.13;9.33;;;3.00;99.90;;;;;;6074280;23;20805;-78
2020/12/30 09:10:38;;;;;;;3.80;3.40;;;3.20;99.90;;;;;;6100269;23;20422;-78
2020/12/30 09:13:11;;;;;;;8.17;7.57;;;3.30;99.90;;;;;;6072670;23;20877;-78
2020/12/30 09:15:37;;;;;;;11.40;10.40;;;3.30;99.90;;;;;;6098863;23;20435;-78
2020/12/30 09:18:03;;;;;;;6.17;5.70;;;3.40;99.90;;;;;;6072389;23;20814;-78
2020/12/30 09:20:32;;;;;;;4.70;3.80;;;3.40;99.90;;;;;;6073158;23;20427;-78
2020/12/30 09:23:00;;;;;;;6.40;4.30;;;3.40;99.90;;;;;;6098656;23;20390;-78
2020/12/30 09:25:27;;;;;;;5.63;5.13;;;3.40;99.90;;;;;;6072307;23;20495;-78
2020/12/30 09:27:55;;;;;;;9.10;8.50;;;3.40;99.90;;;;;;6072561;23;20443;-78
2020/12/30 09:30:25;;;;;;;8.73;7.83;;;3.40;99.90;;;;;;6098378;23;20387;-79
2020/12/30 09:32:52;;;;;;;11.97;11.00;;;3.40;99.90;;;;;;6072537;23;20439;-78
2020/12/30 09:35:25;;;;;;;9.50;8.80;;;3.50;99.90;;;;;;6069705;23;20432;-79
2020/12/30 09:37:55;;;;;;;6.80;5.47;;;3.60;99.90;;;;;;6071453;23;21080;-77
2020/12/30 09:40:22;;;;;;;5.60;4.50;;;3.50;99.90;;;;;;6071749;23;20405;-78
2020/12/30 09:42:48;;;;;;;7.63;5.50;;;3.60;99.90;;;;;;6072425;23;20416;-78
2020/12/30 09:45:18;;;;;;;5.67;4.60;;;3.60;99.90;;;;;;6073408;23;20760;-78
2020/12/30 09:47:45;;;;;;;7.90;4.70;;;3.70;99.90;;;;;;6098033;23;20426;-78
2020/12/30 09:50:13;;;;;;;6.87;6.20;;;3.80;99.90;;;;;;6095628;23;20456;-76
2020/12/30 09:53:52;;;;;;;;;;;;;;;;;;;;;
2020/12/30 10:00:28;;;;;;;12.50;11.63;;;4.00;99.90;;;;;;5855260;24;20469;-76
2020/12/30 10:06:36;;;;;;;10.07;9.27;;;4.30;99.90;;;;;;5916628;23;20431;-75
2020/12/30 10:09:06;;;;;;;7.60;6.43;;;4.30;99.90;;;;;;6006792;23;20425;-76
2020/12/30 10:11:56;;;;;;;11.00;10.20;;;4.40;99.90;;;;;;6082323;23;20425;-77
2020/12/30 10:14:59;;;;;;;11.40;10.50;;;4.40;99.90;;;;;;6094308;23;20410;-77
2020/12/30 10:22:06;;;;;;;13.40;12.50;;;4.40;99.90;;;;;;6074556;23;20911;-76
2020/12/30 10:25:24;;;;;;;13.00;12.10;;;4.60;99.90;;;;;;6061652;23;20800;-76
2020/12/30 10:30:58;;;;;;;10.83;9.93;;;4.80;99.90;;;;;;6096228;23;20442;-78
2020/12/30 10:33:24;;;;;;;10.90;9.90;;;4.80;99.90;;;;;;6070805;23;20452;-76
2020/12/30 10:35:53;;;;;;;9.47;8.67;;;4.80;99.90;;;;;;6096781;23;20177;-80
2020/12/30 10:38:19;;;;;;;9.67;8.87;;;4.80;99.90;;;;;;6070756;23;20418;-78
2020/12/30 10:40:46;;;;;;;13.23;12.23;;;4.80;99.90;;;;;;6070745;23;20198;-78
2020/12/30 10:43:15;;;;;;;13.00;11.93;;;4.90;99.90;;;;;;6070932;23;20181;-79
2020/12/30 10:45:42;;;;;;;12.20;11.37;;;5.00;99.90;;;;;;6071374;23;20426;-78
2020/12/30 10:48:08;;;;;;;11.87;10.70;;;4.90;99.90;;;;;;6094993;23;20625;-79
2020/12/30 12:15:21;;;;;;;8.87;8.07;;;5.40;99.90;;;;;;6073124;23;20218;-77
2020/12/30 12:17:47;;;;;;;11.27;10.37;;;5.40;99.90;;;;;;6095794;23;20155;-77
2020/12/30 12:20:14;;;;;;;4.60;4.20;;;5.40;99.90;;;;;;6070023;23;20205;-76
2020/12/30 12:22:41;;;;;;;10.90;10.00;;;5.40;99.90;;;;;;6096185;23;20217;-76
2020/12/30 12:25:07;;;;;;;9.43;8.70;;;5.40;99.90;;;;;;6097704;23;20170;-78
2020/12/30 12:27:33;;;;;;;6.80;5.60;;;5.50;99.90;;;;;;6097785;23;20174;-76
2020/12/30 12:30:00;;;;;;;8.60;7.80;;;5.50;99.90;;;;;;6072103;23;20669;-76
2020/12/30 12:32:27;;;;;;;7.40;5.73;;;5.60;99.90;;;;;;6098111;23;20217;-77
2020/12/30 12:34:56;;;;;;;4.97;4.57;;;5.60;99.90;;;;;;6097747;23;20166;-76
2020/12/30 12:37:23;;;;;;;17.87;16.53;;;5.70;99.90;;;;;;6071480;23;20253;-76
2020/12/30 12:39:51;;;;;;;11.70;10.90;;;5.70;99.90;;;;;;6071662;23;20202;-78
2020/12/30 12:42:19;;;;;;;11.57;10.67;;;5.70;99.90;;;;;;6097581;23;20166;-77
2020/12/30 12:44:45;;;;;;;11.83;11.03;;;5.70;99.90;;;;;;6097407;23;20221;-78
2020/12/30 12:47:11;;;;;;;11.90;11.10;;;5.80;99.90;;;;;;6071852;23;20185;-77
2020/12/30 12:49:39;;;;;;;11.77;10.97;;;5.80;99.90;;;;;;6095381;23;20205;-78
2020/12/30 12:52:05;;;;;;;11.60;10.80;;;5.70;99.90;;;;;;6097542;23;20170;-77
2020/12/30 12:54:32;;;;;;;10.63;9.93;;;5.80;99.90;;;;;;6072524;23;20174;-77
2020/12/30 12:57:00;;;;;;;8.70;8.03;;;5.80;99.90;;;;;;6072203;23;20182;-77
2020/12/30 12:59:27;;;;;;;9.47;8.77;;;5.80;99.90;;;;;;6097251;23;20194;-78
2020/12/30 13:01:53;;;;;;;5.73;3.97;;;5.90;99.90;;;;;;6097597;23;20170;-77
2020/12/30 13:04:20;;;;;;;4.70;4.37;;;5.90;99.90;;;;;;6071770;23;20170;-77
2020/12/30 13:06:47;;;;;;;3.77;3.37;;;6.00;99.90;;;;;;6071507;23;20183;-77
2020/12/30 13:09:15;;;;;;;4.43;4.00;;;6.00;99.90;;;;;;6071344;23;20249;-77
2020/12/30 13:11:42;;;;;;;5.27;4.30;;;6.00;99.90;;;;;;6071793;23;20178;-78
2020/12/30 13:14:09;;;;;;;10.00;9.30;;;6.00;99.90;;;;;;6072377;23;20737;-77
2020/12/30 13:16:35;;;;;;;6.33;5.83;;;6.10;99.90;;;;;;6071734;23;20582;-78
2020/12/30 13:19:01;;;;;;;4.10;3.30;;;6.10;99.90;;;;;;6071854;23;20257;-77
2020/12/30 13:21:33;;;;;;;3.40;3.20;;;6.20;99.90;;;;;;6072282;23;20218;-78
2020/12/30 13:24:00;;;;;;;3.50;3.20;;;6.20;99.90;;;;;;6098257;23;20155;-79
2020/12/30 13:26:27;;;;;;;3.60;3.30;;;6.20;99.90;;;;;;6072370;23;20182;-80
2020/12/30 13:28:53;;;;;;;4.27;3.40;;;6.20;99.90;;;;;;6097636;23;20193;-78
2020/12/30 13:31:19;;;;;;;5.47;4.97;;;6.20;99.90;;;;;;6097663;23;20170;-79
2020/12/30 13:33:45;;;;;;;9.70;9.00;;;6.20;99.90;;;;;;6097544;23;20197;-78
2020/12/30 13:36:12;;;;;;;11.60;10.70;;;6.20;99.90;;;;;;6097964;23;20225;-78
2020/12/30 13:38:38;;;;;;;11.17;10.47;;;6.30;99.90;;;;;;6097172;23;20170;-77
2020/12/30 13:41:05;;;;;;;8.03;7.43;;;6.30;99.90;;;;;;6098886;23;20641;-78
2020/12/30 13:43:31;;;;;;;4.47;4.03;;;6.30;99.90;;;;;;6098368;23;20166;-78
2020/12/30 13:45:58;;;;;;;5.00;3.67;;;6.40;99.90;;;;;;6072332;23;20226;-79
2020/12/30 13:48:24;;;;;;;4.53;3.17;;;6.30;99.90;;;;;;6095670;23;20602;-77
2020/12/30 13:50:50;;;;;;;3.87;3.20;;;6.40;99.90;;;;;;6095543;23;20182;-81
2020/12/30 13:53:16;;;;;;;5.50;5.07;;;6.30;99.90;;;;;;6072659;23;20197;-78
2020/12/30 13:55:43;;;;;;;4.30;2.90;;;6.30;99.90;;;;;;6071076;23;20185;-77
2020/12/30 13:58:10;;;;;;;11.13;10.33;;;6.30;99.90;;;;;;6096952;23;20175;-78
2020/12/30 14:00:36;;;;;;;9.73;9.03;;;6.30;99.90;;;;;;6072048;23;20230;-77
2020/12/30 14:03:02;;;;;;;9.50;8.70;;;6.30;99.90;;;;;;6072400;23;20177;-77
2020/12/30 14:05:30;;;;;;;6.13;5.67;;;6.20;99.90;;;;;;6097963;23;20217;-76
2020/12/30 14:07:56;;;;;;;5.73;4.50;;;6.20;99.90;;;;;;6097455;23;20177;-77
2020/12/30 14:10:23;;;;;;;14.37;11.57;;;6.20;99.90;;;;;;6097727;23;20190;-77
2020/12/30 14:12:49;;;;;;;10.53;6.73;;;6.10;99.90;;;;;;6097132;23;20658;-77
2020/12/30 14:15:16;;;;;;;13.43;12.27;;;6.10;99.90;;;;;;6071916;23;20205;-77
2020/12/30 14:17:42;;;;;;;12.63;11.47;;;6.00;99.90;;;;;;6097098;23;20158;-77
2020/12/30 14:20:09;;;;;;;13.23;12.00;;;6.00;99.90;;;;;;6071033;23;20246;-78
2020/12/30 14:22:35;;;;;;;5.90;4.40;;;6.00;99.90;;;;;;6071845;23;20174;-78
2020/12/30 14:25:01;;;;;;;12.97;11.93;;;5.90;99.90;;;;;;6097737;23;20598;-77
2020/12/30 14:27:27;;;;;;;12.93;11.80;;;5.90;99.90;;;;;;6072194;23;20201;-78